ADDS TAF Board (Experimental) INFO Settings
IDs: Format: Expanded Condensed

KDEN - Denver Intl, CO, US

Issued at 0129 UTC 26 May 2016
Updated at: 0243 UTC 26 May 2016
Time0153Z 26/03Z 26/04Z 26/05Z 26/06Z 26/07Z 26/08Z 26/09Z 26/10Z 26/11Z 26/12Z 26/13Z 26/14Z 26/15Z
Type OBS PRVL PRVL PRVL PRVL PRVL PRVL PRVL PRVL PRVL PRVL PRVL PRVL PRVL
VIS 10 >6 >6 >6 >6 >6 >6 >6 >6 >6 >6 >6 >6 >6
CIG 200 180 180 180 180 180 180 180 180 180 180 120 120 120
Cover BKN BKN BKN BKN BKN BKN BKN BKN BKN BKN BKN BKN BKN BKN
FltCat VFR VFR VFR VFR VFR VFR VFR VFR VFR VFR VFR VFR VFR VFR
WX -- -- -- -- -- -- -- -- -- -- -- -- -- --
WDir 40 40 40 40 40 40 40 40 40 40 40 340 340 340
WSpd 8 11 11 11 11 11 11 11 11 11 11 8 8 8
WGst -- -- -- -- -- -- -- -- -- -- -- -- -- --
R07/25
XWnd 6 8 8 8 8 8 8 8 8 8 8 8 8 8
HWnd 5 7 7 7 7 7 7 7 7 7 7 -3 -3 -3
R08/26
XWnd 6 9 9 9 9 9 9 9 9 9 9 7 7 7
HWnd 5 7 7 7 7 7 7 7 7 7 7 -3 -3 -3
R16/34
XWnd 5 7 7 7 7 7 7 7 7 7 7 -3 -3 -3
HWnd -6 -9 -9 -9 -9 -9 -9 -9 -9 -9 -9 -7 -7 -7
R17/35
XWnd 5 7 7 7 7 7 7 7 7 7 7 -3 -3 -3
HWnd -6 -9 -9 -9 -9 -9 -9 -9 -9 -9 -9 -7 -7 -7

NOTE: TEMPO conditions in [brackets]. Keep in mind TEMPO conditions might be better (lower impact) than prevailing conditions.

Raw TAF
KDEN 260129Z 2601/2706 07013KT P6SM SCT080 SCT140 BKN200
  FM260200 04011KT P6SM FEW080 SCT140 BKN180
  FM261300 34008KT P6SM SCT060 BKN120
  FM261700 04011KT P6SM VCSH BKN060 OVC120
  FM262000 05010KT P6SM VCTS BKN050CB OVC090
  TEMPO 2620/2624 VRB20G30KT -TSRA BKN050CB
  FM270100 07010KT P6SM VCTS SCT040CB OVC070
  TEMPO 2701/2704 -SHRA BKN040


Raw METAR
KDEN 260153Z 04008KT 10SM FEW080 SCT140 BKN200 14/08 A2994 RMK AO2 SLP087 T01440078
KDEN 260053Z 07011KT 10SM FEW070 SCT140 BKN220 18/07 A2992 RMK AO2 SLP078 CB DSNT E T01830067
KDEN 252353Z 07011KT 10SM FEW070 SCT140 BKN220 22/06 A2993 RMK AO2 SLP076 VIRGA MST QDS CB DSNT E-SE T02170056 10228 20189 56009

METAR Board
Radar Display
Forecast Discussion

TAF Board Legend

Potential Impact
Threat None Slight Moderate High
Visibility (sm) ≥5.1 5.1>X≥3 3>X≥1 <1
Ceiling (100 ft) ≥30.1 30.1>X≥10 10>X≥5 <5
Wind Speed (kt) <10 10≤X<20 20≤X<30 ≥30
Wind Gust (kt) <15 15≤X<25 25≤X<35 ≥35
Weather No Wx Reported VCTS,-TS,-FZRA,SN TS,FZRA +TS,+FZRA,+SN